createdAt,value
2017-10-01T00:00:26.196Z,15.55
2017-10-01T00:02:53.796Z,15.54
2017-10-01T00:05:21.425Z,15.55
2017-10-01T00:07:48.971Z,15.56
2017-10-01T00:10:16.578Z,15.57
2017-10-01T00:12:44.167Z,15.56
2017-10-01T00:15:12.217Z,15.55
2017-10-01T00:17:40.215Z,15.54
2017-10-01T00:20:08.892Z,15.55
2017-10-01T00:22:36.433Z,15.52
2017-10-01T00:25:05.920Z,15.41
2017-10-01T00:27:33.543Z,15.31
2017-10-01T00:30:01.105Z,15.21
2017-10-01T00:32:30.027Z,15.10
2017-10-01T00:34:57.670Z,15.06
2017-10-01T00:37:25.286Z,15.04
2017-10-01T00:39:52.878Z,14.99
2017-10-01T00:42:20.950Z,14.93
2017-10-01T00:44:48.943Z,14.91
2017-10-01T00:47:16.613Z,14.87
2017-10-01T00:49:44.201Z,14.85
2017-10-01T00:52:11.798Z,14.84
2017-10-01T00:54:40.243Z,14.83
2017-10-01T00:57:08.789Z,14.77
2017-10-01T00:59:37.097Z,14.72
2017-10-01T01:02:05.916Z,14.69
2017-10-01T01:04:33.507Z,14.65
2017-10-01T01:07:01.080Z,14.64
2017-10-01T01:09:28.630Z,14.63
2017-10-01T01:11:56.211Z,14.63
2017-10-01T01:14:23.776Z,14.56
2017-10-01T01:16:52.089Z,14.52
2017-10-01T01:19:19.640Z,14.51
2017-10-01T01:21:48.676Z,14.50
2017-10-01T01:24:17.794Z,14.45
2017-10-01T01:26:46.735Z,14.44
2017-10-01T01:29:14.334Z,14.38
2017-10-01T01:31:41.940Z,14.34
2017-10-01T01:34:09.542Z,14.35
2017-10-01T01:36:37.120Z,14.34
2017-10-01T01:39:05.016Z,14.33
2017-10-01T01:41:32.575Z,14.35
2017-10-01T01:44:00.175Z,14.35
2017-10-01T01:46:27.753Z,14.36
2017-10-01T01:48:55.319Z,14.37
2017-10-01T01:51:22.897Z,14.34
2017-10-01T01:53:50.896Z,14.31
2017-10-01T01:56:18.483Z,14.27
2017-10-01T01:58:46.616Z,14.26
2017-10-01T02:01:18.114Z,14.29
2017-10-01T02:03:45.674Z,14.27
2017-10-01T02:06:13.488Z,14.23
2017-10-01T02:08:41.044Z,14.23
2017-10-01T02:11:08.573Z,14.25
2017-10-01T02:13:36.495Z,14.25
2017-10-01T02:16:04.053Z,14.25
2017-10-01T02:18:31.664Z,14.23
2017-10-01T02:20:59.218Z,14.26
2017-10-01T02:23:27.172Z,14.25
2017-10-01T02:25:54.754Z,14.23
2017-10-01T02:28:25.067Z,14.23
2017-10-01T02:30:52.632Z,14.13
2017-10-01T02:33:20.225Z,14.12
2017-10-01T02:35:48.216Z,14.07
2017-10-01T02:38:16.637Z,14.03
2017-10-01T02:40:44.192Z,13.96
2017-10-01T02:43:12.713Z,13.97
2017-10-01T02:45:41.674Z,13.98
2017-10-01T02:48:09.210Z,13.94
2017-10-01T02:50:36.777Z,13.91
2017-10-01T02:53:04.344Z,13.85
2017-10-01T02:55:34.825Z,13.80
2017-10-01T02:58:02.363Z,13.79
2017-10-01T03:00:29.946Z,13.82
2017-10-01T03:02:57.925Z,13.85
2017-10-01T03:05:25.787Z,13.80
2017-10-01T03:07:53.394Z,13.77
2017-10-01T03:10:20.966Z,13.74
2017-10-01T03:12:48.532Z,13.75
2017-10-01T03:15:16.492Z,13.65
2017-10-01T03:17:44.120Z,13.68
2017-10-01T03:20:11.690Z,13.64
2017-10-01T03:22:39.263Z,13.56
2017-10-01T03:25:06.834Z,13.55
2017-10-01T03:27:34.420Z,13.52
2017-10-01T03:30:03.091Z,13.45
2017-10-01T03:32:31.263Z,13.49
2017-10-01T03:34:59.274Z,13.46
2017-10-01T03:37:26.849Z,13.50
2017-10-01T03:39:54.463Z,13.54
2017-10-01T03:42:22.020Z,13.48
2017-10-01T03:44:49.598Z,13.44
2017-10-01T03:47:17.151Z,13.46
2017-10-01T03:49:44.718Z,13.44
2017-10-01T03:52:12.279Z,13.47
2017-10-01T03:54:40.670Z,13.47
2017-10-01T03:57:09.281Z,13.40
2017-10-01T03:59:37.246Z,13.42
2017-10-01T04:02:05.395Z,13.38
2017-10-01T04:04:33.306Z,13.31
2017-10-01T04:07:01.876Z,13.24
2017-10-01T04:09:30.896Z,13.27
2017-10-01T04:11:58.481Z,13.24
2017-10-01T04:14:26.063Z,13.25
2017-10-01T04:16:53.636Z,13.24
2017-10-01T04:19:21.901Z,13.22
2017-10-01T04:21:49.875Z,13.21
2017-10-01T04:24:18.323Z,13.20
2017-10-01T04:26:46.976Z,13.17
2017-10-01T04:29:15.811Z,13.19
2017-10-01T04:31:43.395Z,13.22
2017-10-01T04:34:10.974Z,13.20
2017-10-01T04:36:38.532Z,13.12
2017-10-01T04:39:07.567Z,13.08
2017-10-01T04:41:36.143Z,13.12
2017-10-01T04:44:03.762Z,13.01
2017-10-01T04:46:31.687Z,13.01
2017-10-01T04:48:59.277Z,13.05
2017-10-01T04:51:26.859Z,13.10
2017-10-01T04:53:54.454Z,13.08
2017-10-01T04:56:23.180Z,13.06
2017-10-01T04:58:50.728Z,12.98
2017-10-01T05:01:19.696Z,12.99
2017-10-01T05:03:48.693Z,13.01
2017-10-01T05:06:16.278Z,12.95
2017-10-01T05:08:44.237Z,12.97
2017-10-01T05:11:11.829Z,12.98
2017-10-01T05:13:39.400Z,13.04
2017-10-01T05:16:06.987Z,13.00
2017-10-01T05:18:35.034Z,13.01
2017-10-01T05:21:02.591Z,12.99
2017-10-01T05:23:31.569Z,12.96
2017-10-01T05:25:59.147Z,13.01
2017-10-01T05:28:27.647Z,13.00
2017-10-01T05:30:55.224Z,13.00
2017-10-01T05:33:22.780Z,12.96
2017-10-01T05:35:50.349Z,12.92
2017-10-01T05:38:18.272Z,12.96
2017-10-01T05:40:45.840Z,12.94
2017-10-01T05:43:15.694Z,12.94
2017-10-01T05:45:43.305Z,12.95
2017-10-01T05:48:10.867Z,12.96
2017-10-01T05:50:38.444Z,12.97
2017-10-01T05:53:05.998Z,12.97
2017-10-01T05:55:33.610Z,13.01
2017-10-01T05:58:01.199Z,13.03
2017-10-01T06:00:29.165Z,13.06
2017-10-01T06:02:57.090Z,13.09
2017-10-01T06:05:24.668Z,13.11
2017-10-01T06:07:52.694Z,13.07
2017-10-01T06:10:20.521Z,13.16
2017-10-01T06:12:48.070Z,13.16
2017-10-01T06:15:15.627Z,13.19
2017-10-01T06:17:43.210Z,13.21
2017-10-01T06:20:12.578Z,13.21
2017-10-01T06:22:40.620Z,13.19
2017-10-01T06:25:08.179Z,13.23
2017-10-01T06:27:36.544Z,13.23
2017-10-01T06:30:04.573Z,13.25
2017-10-01T06:32:32.157Z,13.27
2017-10-01T06:35:00.247Z,13.25
2017-10-01T06:37:27.826Z,13.26
2017-10-01T06:39:58.291Z,13.28
2017-10-01T06:42:26.336Z,13.30
2017-10-01T06:44:53.923Z,13.30
2017-10-01T06:47:22.215Z,13.34
2017-10-01T06:49:50.536Z,13.39
2017-10-01T06:52:18.527Z,13.38
2017-10-01T06:54:47.028Z,13.33
2017-10-01T06:57:15.033Z,13.32
2017-10-01T06:59:42.688Z,13.40
2017-10-01T07:02:10.297Z,13.37
2017-10-01T07:04:44.720Z,13.45
2017-10-01T07:07:12.310Z,13.47
2017-10-01T07:09:41.282Z,13.46
2017-10-01T07:12:10.699Z,13.46
2017-10-01T07:14:38.269Z,13.46
2017-10-01T07:17:05.928Z,13.37
2017-10-01T07:19:33.575Z,13.43
2017-10-01T07:22:01.180Z,13.44
2017-10-01T07:24:28.757Z,13.42
2017-10-01T07:26:56.346Z,13.47
2017-10-01T07:29:23.940Z,13.49
2017-10-01T07:31:51.566Z,13.43
2017-10-01T07:34:19.507Z,13.41
2017-10-01T07:36:47.085Z,13.39
2017-10-01T07:39:14.649Z,13.35
2017-10-01T07:41:43.518Z,13.41
2017-10-01T07:44:11.125Z,13.36
2017-10-01T07:46:38.721Z,13.43
2017-10-01T07:49:06.372Z,13.48
2017-10-01T07:51:33.970Z,13.51
2017-10-01T07:54:01.598Z,13.42
2017-10-01T07:56:30.060Z,13.38
2017-10-01T07:58:57.785Z,13.36
2017-10-01T08:01:25.723Z,13.32
2017-10-01T08:03:55.921Z,13.39
2017-10-01T08:06:23.566Z,13.37
2017-10-01T08:08:51.600Z,13.44
2017-10-01T08:11:20.505Z,13.28
2017-10-01T08:13:48.301Z,13.28
2017-10-01T08:16:15.896Z,13.37
2017-10-01T08:18:43.452Z,13.46
2017-10-01T08:21:11.077Z,13.55
2017-10-01T08:23:38.636Z,13.66
2017-10-01T08:26:06.273Z,13.76
2017-10-01T08:28:34.414Z,13.92
2017-10-01T08:31:01.988Z,13.93
2017-10-01T08:33:29.636Z,13.84
2017-10-01T08:35:57.820Z,13.89
2017-10-01T08:38:25.425Z,13.79
2017-10-01T08:40:53.020Z,13.84
2017-10-01T08:43:23.012Z,13.94
2017-10-01T08:45:50.633Z,13.89
2017-10-01T08:48:20.673Z,13.93
2017-10-01T08:50:48.264Z,13.91
2017-10-01T08:53:16.204Z,13.89
2017-10-01T08:55:43.783Z,13.97
2017-10-01T08:58:11.362Z,14.05
2017-10-01T09:00:39.566Z,14.10
2017-10-01T09:03:07.539Z,14.20
2017-10-01T09:05:35.152Z,14.22
2017-10-01T09:08:02.758Z,14.21
2017-10-01T09:10:32.017Z,14.18
2017-10-01T09:13:01.216Z,14.18
2017-10-01T09:15:31.854Z,14.16
2017-10-01T09:17:59.552Z,14.27
2017-10-01T09:20:29.571Z,14.42
2017-10-01T09:22:59.284Z,14.43
2017-10-01T09:25:27.422Z,14.41
2017-10-01T09:27:55.028Z,14.42
2017-10-01T09:30:24.484Z,14.44
2017-10-01T09:32:52.497Z,14.47
2017-10-01T09:35:21.513Z,14.37
2017-10-01T09:37:49.541Z,14.34
2017-10-01T09:40:17.152Z,14.38
2017-10-01T09:42:47.627Z,14.42
2017-10-01T09:45:15.226Z,14.44
2017-10-01T09:47:42.889Z,14.55
2017-10-01T09:50:10.494Z,14.70
2017-10-01T09:52:38.094Z,14.91
2017-10-01T09:55:07.033Z,15.03
2017-10-01T09:57:34.649Z,15.16
2017-10-01T10:00:02.391Z,15.18
2017-10-01T10:02:30.389Z,15.16
2017-10-01T10:04:58.129Z,15.17
2017-10-01T10:07:25.700Z,15.24
2017-10-01T10:09:53.290Z,15.27
2017-10-01T10:12:20.874Z,15.25
2017-10-01T10:14:48.914Z,15.28
2017-10-01T10:17:17.276Z,15.31
2017-10-01T10:19:46.928Z,15.47
2017-10-01T10:22:14.944Z,15.66
2017-10-01T10:24:45.424Z,15.64
2017-10-01T10:27:14.791Z,15.51
2017-10-01T10:29:42.801Z,15.39
2017-10-01T10:32:10.447Z,15.31
2017-10-01T10:34:38.039Z,15.17
2017-10-01T10:37:05.626Z,15.05
2017-10-01T10:39:33.217Z,14.94
2017-10-01T10:42:00.765Z,14.85
2017-10-01T10:44:28.351Z,14.83
2017-10-01T10:46:55.926Z,14.95
2017-10-01T10:49:24.170Z,15.07
2017-10-01T10:51:51.745Z,15.20
2017-10-01T10:54:19.972Z,15.23
2017-10-01T10:56:47.960Z,15.48
2017-10-01T10:59:15.814Z,15.71
2017-10-01T11:01:43.495Z,15.77
2017-10-01T11:04:11.054Z,15.81
2017-10-01T11:06:39.062Z,15.83
2017-10-01T11:09:07.202Z,15.95
2017-10-01T11:11:34.855Z,16.04
2017-10-01T11:14:02.415Z,15.97
2017-10-01T11:16:32.093Z,16.03
2017-10-01T11:19:00.922Z,16.05
2017-10-01T11:21:28.533Z,16.01
2017-10-01T11:23:56.157Z,15.96
2017-10-01T11:26:24.056Z,15.81
2017-10-01T11:28:54.451Z,15.85
2017-10-01T11:31:24.008Z,15.83
2017-10-01T11:33:54.739Z,15.82
2017-10-01T11:36:24.117Z,15.87
2017-10-01T11:38:51.715Z,15.97
2017-10-01T11:41:20.599Z,16.07
2017-10-01T11:43:48.944Z,16.22
2017-10-01T11:46:16.555Z,16.31
2017-10-01T11:48:44.189Z,16.33
2017-10-01T11:51:14.412Z,16.21
2017-10-01T11:53:44.401Z,16.00
2017-10-01T11:56:17.411Z,15.93
2017-10-01T11:58:48.495Z,15.86
2017-10-01T12:01:16.621Z,15.73
2017-10-01T12:03:45.602Z,15.66
2017-10-01T12:06:15.373Z,15.68
2017-10-01T12:08:43.339Z,15.47
2017-10-01T12:11:11.336Z,15.40
2017-10-01T12:13:39.022Z,15.34
2017-10-01T12:16:11.549Z,15.29
2017-10-01T12:18:39.148Z,15.39
2017-10-01T12:21:07.600Z,15.54
2017-10-01T12:23:35.162Z,15.62
2017-10-01T12:26:03.117Z,15.77
2017-10-01T12:28:30.728Z,15.95
2017-10-01T12:30:58.429Z,16.03
2017-10-01T12:33:27.492Z,15.94
2017-10-01T12:35:56.679Z,15.85
2017-10-01T12:38:24.545Z,15.84
2017-10-01T12:40:52.796Z,15.79
2017-10-01T12:43:20.400Z,15.83
2017-10-01T12:45:49.811Z,15.78
2017-10-01T12:48:17.407Z,15.73
2017-10-01T12:50:45.000Z,15.76
2017-10-01T12:53:12.565Z,15.69
2017-10-01T12:55:40.995Z,15.74
2017-10-01T12:58:14.103Z,15.83
2017-10-01T13:00:41.724Z,15.89
2017-10-01T13:03:09.297Z,15.99
2017-10-01T13:05:38.373Z,15.93
2017-10-01T13:08:09.532Z,15.90
2017-10-01T13:10:37.126Z,15.83
2017-10-01T13:13:04.723Z,15.71
2017-10-01T13:15:32.350Z,15.69
2017-10-01T13:18:05.046Z,15.56
2017-10-01T13:20:32.707Z,15.57
2017-10-01T13:23:00.325Z,15.61
2017-10-01T13:25:32.478Z,15.69
2017-10-01T13:28:00.800Z,15.60
2017-10-01T13:30:29.822Z,15.53
2017-10-01T13:32:57.795Z,15.57
2017-10-01T13:35:25.389Z,15.62
2017-10-01T13:37:52.999Z,15.68
2017-10-01T13:40:22.545Z,15.67
2017-10-01T13:42:50.135Z,15.68
2017-10-01T13:45:19.350Z,15.73
2017-10-01T13:47:50.716Z,15.76
2017-10-01T13:50:18.963Z,15.78
2017-10-01T13:52:46.548Z,15.81
2017-10-01T13:55:14.164Z,15.83
2017-10-01T13:57:42.773Z,15.82
2017-10-01T14:00:11.861Z,15.81
2017-10-01T14:02:39.446Z,15.75
2017-10-01T14:05:14.833Z,15.69
2017-10-01T14:07:42.383Z,15.64
2017-10-01T14:10:18.208Z,15.65
2017-10-01T14:12:47.259Z,15.70
2017-10-01T14:15:18.756Z,15.73
2017-10-01T14:17:49.525Z,15.70
2017-10-01T14:20:18.005Z,15.69
2017-10-01T14:22:48.218Z,15.68
2017-10-01T14:25:15.804Z,15.70
2017-10-01T14:27:43.373Z,15.73
2017-10-01T14:30:10.948Z,15.69
2017-10-01T14:32:40.889Z,15.72
2017-10-01T14:35:08.476Z,15.76
2017-10-01T14:37:36.134Z,15.83
2017-10-01T14:40:03.750Z,15.89
2017-10-01T14:42:31.535Z,15.96
2017-10-01T14:44:59.562Z,16.03
2017-10-01T14:47:29.025Z,16.01
2017-10-01T14:49:56.629Z,15.98
2017-10-01T14:52:24.881Z,15.94
2017-10-01T14:54:52.506Z,15.92
2017-10-01T14:57:20.220Z,15.86
2017-10-01T14:59:48.154Z,15.86
2017-10-01T15:02:17.002Z,15.82
2017-10-01T15:04:44.573Z,15.81
2017-10-01T15:07:12.169Z,15.82
2017-10-01T15:09:40.932Z,15.80
2017-10-01T15:12:08.507Z,15.83
2017-10-01T15:14:36.090Z,15.84
2017-10-01T15:17:03.710Z,15.85
2017-10-01T15:19:32.113Z,15.84
2017-10-01T15:22:00.184Z,15.83
2017-10-01T15:24:27.721Z,15.80
2017-10-01T15:26:56.292Z,15.71
2017-10-01T15:29:24.096Z,15.66
2017-10-01T15:31:51.696Z,15.65
2017-10-01T15:34:19.307Z,15.66
2017-10-01T15:36:46.879Z,15.65
2017-10-01T15:39:14.496Z,15.68
2017-10-01T15:41:43.662Z,15.68
2017-10-01T15:44:11.571Z,15.66
2017-10-01T15:46:39.274Z,15.62
2017-10-01T15:49:07.431Z,15.53
2017-10-01T15:51:37.289Z,15.48
2017-10-01T15:54:04.868Z,15.45
2017-10-01T15:56:32.488Z,15.41
2017-10-01T15:59:01.718Z,15.40
2017-10-01T16:01:29.316Z,15.38
2017-10-01T16:03:56.918Z,15.38
2017-10-01T16:06:24.517Z,15.36
2017-10-01T16:08:52.110Z,15.34
2017-10-01T16:11:20.155Z,15.33
2017-10-01T16:13:47.714Z,15.29
2017-10-01T16:16:15.325Z,15.26
2017-10-01T16:18:45.155Z,15.20
2017-10-01T16:21:12.801Z,15.20
2017-10-01T16:23:41.739Z,15.18
2017-10-01T16:26:09.713Z,15.12
2017-10-01T16:28:37.283Z,15.05
2017-10-01T16:31:07.868Z,15.00
2017-10-01T16:33:35.504Z,14.98
2017-10-01T16:36:04.308Z,14.94
2017-10-01T16:38:33.097Z,14.89
2017-10-01T16:41:01.150Z,14.85
2017-10-01T16:43:28.744Z,14.80
2017-10-01T16:46:00.872Z,14.77
2017-10-01T16:48:32.077Z,14.75
2017-10-01T16:51:00.142Z,14.73
2017-10-01T16:53:28.986Z,14.72
2017-10-01T16:55:57.158Z,14.73
2017-10-01T16:58:24.741Z,14.70
2017-10-01T17:00:52.349Z,14.68
2017-10-01T17:03:19.939Z,14.64
2017-10-01T17:05:47.566Z,14.58
2017-10-01T17:08:15.549Z,14.53
2017-10-01T17:10:44.783Z,14.50
2017-10-01T17:13:13.800Z,14.46
2017-10-01T17:15:41.372Z,14.45
2017-10-01T17:18:11.893Z,14.38
2017-10-01T17:20:39.808Z,14.33
2017-10-01T17:23:07.415Z,14.27
2017-10-01T17:25:35.022Z,14.23
2017-10-01T17:28:02.640Z,14.18
2017-10-01T17:30:30.237Z,14.14
2017-10-01T17:32:58.665Z,14.09
2017-10-01T17:35:26.247Z,14.04
2017-10-01T17:37:53.863Z,13.99
2017-10-01T17:40:21.479Z,13.94
2017-10-01T17:42:49.093Z,13.92
2017-10-01T17:45:17.056Z,13.89
2017-10-01T17:47:45.013Z,13.86
2017-10-01T17:50:12.642Z,13.79
2017-10-01T17:52:43.141Z,13.70
2017-10-01T17:55:11.204Z,13.64
2017-10-01T17:57:39.258Z,13.59
2017-10-01T18:00:06.880Z,13.53
2017-10-01T18:02:34.460Z,13.45
2017-10-01T18:05:05.197Z,13.42
2017-10-01T18:07:37.074Z,13.40
2017-10-01T18:10:08.273Z,13.38
2017-10-01T18:12:35.845Z,13.35
2017-10-01T18:15:04.852Z,13.32
2017-10-01T18:17:32.477Z,13.29
2017-10-01T18:20:03.085Z,13.26
2017-10-01T18:22:33.007Z,13.23
2017-10-01T18:25:02.133Z,13.22
2017-10-01T18:27:31.376Z,13.19
2017-10-01T18:30:00.096Z,13.17
2017-10-01T18:32:29.399Z,13.16
2017-10-01T18:34:56.983Z,13.13
2017-10-01T18:37:25.619Z,13.09
2017-10-01T18:39:53.703Z,13.02
2017-10-01T18:42:21.350Z,12.89
2017-10-01T18:44:49.296Z,12.82
2017-10-01T18:47:21.511Z,12.76
2017-10-01T18:49:50.663Z,12.71
2017-10-01T18:52:18.269Z,12.67
2017-10-01T18:54:45.926Z,12.63
2017-10-01T18:57:14.552Z,12.60
2017-10-01T18:59:42.189Z,12.60
2017-10-01T19:02:11.099Z,12.58
2017-10-01T19:04:39.460Z,12.56
2017-10-01T19:07:09.919Z,12.55
2017-10-01T19:09:38.577Z,12.52
2017-10-01T19:12:06.198Z,12.49
2017-10-01T19:14:34.926Z,12.45
2017-10-01T19:17:02.538Z,12.42
2017-10-01T19:19:30.121Z,12.39
2017-10-01T19:21:57.990Z,12.40
2017-10-01T19:24:27.651Z,12.37
2017-10-01T19:26:58.198Z,12.36
2017-10-01T19:29:27.173Z,12.32
2017-10-01T19:31:54.794Z,12.27
2017-10-01T19:34:25.177Z,12.20
2017-10-01T19:36:55.668Z,12.09
2017-10-01T19:39:23.295Z,11.94
2017-10-01T19:41:54.595Z,11.86
2017-10-01T19:44:32.768Z,11.89
2017-10-01T19:47:00.564Z,11.92
2017-10-01T19:49:31.466Z,11.92
2017-10-01T19:51:59.938Z,11.87
2017-10-01T19:54:30.410Z,11.83
2017-10-01T19:56:59.360Z,11.84
2017-10-01T19:59:26.944Z,11.80
2017-10-01T20:01:56.591Z,11.77
2017-10-01T20:04:26.595Z,11.72
2017-10-01T20:06:55.420Z,11.69
2017-10-01T20:09:23.416Z,11.65
2017-10-01T20:11:51.013Z,11.63
2017-10-01T20:14:20.307Z,11.61
2017-10-01T20:16:51.252Z,11.59
2017-10-01T20:19:18.889Z,11.58
2017-10-01T20:21:46.468Z,11.56
2017-10-01T20:24:14.094Z,11.56
2017-10-01T20:26:41.685Z,11.56
2017-10-01T20:29:15.201Z,11.56
2017-10-01T20:31:42.772Z,11.55
2017-10-01T20:34:10.382Z,11.52
2017-10-01T20:36:39.463Z,11.50
2017-10-01T20:39:08.472Z,11.42
2017-10-01T20:41:39.124Z,11.37
2017-10-01T20:44:06.754Z,11.31
2017-10-01T20:46:34.939Z,11.24
2017-10-01T20:49:02.498Z,11.13
2017-10-01T20:51:30.105Z,11.07
2017-10-01T20:53:59.177Z,10.99
2017-10-01T20:56:27.118Z,10.97
2017-10-01T20:58:58.429Z,10.98
2017-10-01T21:01:26.050Z,10.99
2017-10-01T21:03:53.691Z,10.99
2017-10-01T21:06:21.285Z,10.97
2017-10-01T21:08:48.894Z,10.96
2017-10-01T21:11:17.302Z,10.97
2017-10-01T21:13:46.214Z,10.97
2017-10-01T21:16:14.263Z,10.97
2017-10-01T21:18:41.860Z,10.96
2017-10-01T21:21:09.427Z,10.96
2017-10-01T21:23:37.416Z,10.96
2017-10-01T21:26:04.969Z,10.96
2017-10-01T21:28:33.390Z,10.94
2017-10-01T21:31:01.103Z,10.91
2017-10-01T21:33:29.107Z,10.89
2017-10-01T21:35:56.704Z,10.87
2017-10-01T21:38:26.141Z,10.89
2017-10-01T21:40:54.762Z,10.85
2017-10-01T21:43:22.378Z,10.82
2017-10-01T21:45:51.363Z,10.83
2017-10-01T21:48:19.098Z,10.83
2017-10-01T21:50:47.074Z,10.83
2017-10-01T21:53:14.997Z,10.79
2017-10-01T21:55:42.985Z,10.71
2017-10-01T21:58:10.597Z,10.61
2017-10-01T22:00:38.164Z,10.54
2017-10-01T22:03:05.789Z,10.47
2017-10-01T22:05:33.366Z,10.36
2017-10-01T22:08:01.318Z,10.36
2017-10-01T22:10:30.749Z,10.38
2017-10-01T22:12:58.305Z,10.42
2017-10-01T22:15:26.359Z,10.45
2017-10-01T22:17:54.390Z,10.46
2017-10-01T22:20:22.516Z,10.43
2017-10-01T22:22:50.101Z,10.40
2017-10-01T22:25:17.761Z,10.37
2017-10-01T22:27:45.342Z,10.38
2017-10-01T22:30:14.395Z,10.33
2017-10-01T22:32:41.957Z,10.31
2017-10-01T22:35:10.067Z,10.31
2017-10-01T22:37:39.147Z,10.29
2017-10-01T22:40:06.751Z,10.28
2017-10-01T22:42:34.330Z,10.27
2017-10-01T22:45:02.957Z,10.24
2017-10-01T22:47:31.930Z,10.23
2017-10-01T22:50:00.030Z,10.24
2017-10-01T22:52:27.996Z,10.21
2017-10-01T22:54:55.559Z,10.21
2017-10-01T22:57:24.922Z,10.21
2017-10-01T22:59:52.524Z,10.18
2017-10-01T23:02:20.122Z,10.16
2017-10-01T23:04:47.701Z,10.12
2017-10-01T23:07:15.655Z,10.04
2017-10-01T23:09:43.922Z,10.05
2017-10-01T23:12:11.523Z,10.03
2017-10-01T23:14:39.857Z,10.06
2017-10-01T23:17:07.417Z,10.06
2017-10-01T23:19:35.026Z,10.05
2017-10-01T23:22:03.989Z,10.09
2017-10-01T23:24:31.604Z,10.06
2017-10-01T23:27:00.061Z,10.05
2017-10-01T23:29:28.082Z,9.99
2017-10-01T23:31:56.205Z,9.90
2017-10-01T23:34:23.798Z,9.88
2017-10-01T23:36:52.963Z,9.85
2017-10-01T23:39:20.578Z,9.86
2017-10-01T23:41:48.546Z,9.87
2017-10-01T23:44:16.112Z,9.81
2017-10-01T23:46:45.030Z,9.72
2017-10-01T23:49:12.601Z,9.75
2017-10-01T23:51:40.952Z,9.75
2017-10-01T23:54:08.860Z,9.77
2017-10-01T23:56:36.457Z,9.81
2017-10-01T23:59:04.064Z,9.80
